Jamison, PA (18929)

2:44 PM EDT on August 21, 2014 (GMT -0400)
Woodfield Estates | Change Station
CLOSE
Current Station
Personal Weather Station
Location: Jamison, PA
Elevation: 318 ft
Nearby Weather Stations

Elev 318 ft 40.25 °N, 75.09 °W | Updated 13 seconds ago

Overcast
Overcast
80.6 °F
Feels Like 84 °F
N
0.0
Wind Variable Wind from SW
Gusts 0.0 mph

Today
High -- | Low -- °F
--% Chance of Precip.
Yesterday
High -- | Low -- °F
Precip. -- in
6:17 AM 7:48 PM
Waning Crescent, 13% visible
Pressure 30.01 in
Visibility 10.0 miles
Clouds Overcast 3700 ft
Heat Index 84 °F
Dew Point 69 °F
Humidity 68%
Rainfall 0.00 in
Snow Depth Not available.
UV 3 out of 12
Pollen 9.00 out of 12
Air Quality Not available.
Flu Activity Not available.
METAR KDYL 211754Z AUTO VRB03KT 10SM OVC037 26/18 A3003 RMK AO2 SLP163 T02610183 10272 20194 56009

More Conditions Fewer Conditions

Pressure 30.01 in
Visibility 10.0 miles
Clouds Overcast 3700 ft
Heat Index 84 °F
Dew Point 69 °F
Humidity 68%
Rainfall 0.00 in
Snow Depth Not available.
UV 3 out of 12
Pollen 9.00 out of 12
Air Quality Not available.
Flu Activity Not available.
METAR KDYL 211754Z AUTO VRB03KT 10SM OVC037 26/18 A3003 RMK AO2 SLP163 T02610183 10272 20194 56009

More Conditions Fewer Conditions

10-Day Weather Forecast

Almanac

Astronomy

Aug. 21, 2014 Rise Set
Actual Time 6:17 AM EDT 7:48 PM EDT
Civil Twilight 5:48 AM EDT 8:17 PM EDT
Nautical Twilight 5:14 AM EDT 8:51 PM EDT
Astronomical Twilight 4:37 AM EDT 9:28 PM EDT
Moon 2:45 AM EDT 5:16 PM EDT
Length of Visible Light 14h 28m
Length of Day
13h 31m
Tomorrow will be 2m 26s shorter.
Waning Crescent, 13% of the Moon is Illuminated
Today
Waning Crescent
Aug 25
New
Sep 2
First Quarter
Sep 8
Full
Sep 15
Last Quarter

Today's Extremes

State Highs State Lows

Community

WunderPhotos

Upload Photos

1,745,996 photos uploaded!

WunderBlogs® & News

Nearby

Snow Depth

Station Depth Elevation
No new snow has been reported.

Earthquake Activity

City Distance Mag. Time & Date
No recent earthquake activity has been reported nearby.
Minimum magnitude displayed is 2.5.

Coastal Water Temperatures

Place Temperature
No Stations Reporting

Nearby Weather Stations